createdAt,value
2017-06-09T00:00:40.695Z,13.43
2017-06-09T00:01:21.131Z,13.4
2017-06-09T00:02:01.528Z,13.45
2017-06-09T00:02:41.971Z,13.45
2017-06-09T00:03:22.337Z,13.45
2017-06-09T00:04:02.708Z,13.4
2017-06-09T00:04:43.089Z,13.4
2017-06-09T00:05:23.516Z,13.43
2017-06-09T00:06:03.884Z,13.42
2017-06-09T00:06:44.290Z,13.43
2017-06-09T00:07:24.970Z,13.31
2017-06-09T00:08:05.390Z,13.3
2017-06-09T00:08:45.781Z,13.3
2017-06-09T00:09:26.268Z,13.31
2017-06-09T00:10:06.685Z,13.31
2017-06-09T00:10:47.110Z,13.36
2017-06-09T00:11:27.791Z,13.4
2017-06-09T00:12:08.219Z,13.36
2017-06-09T00:12:48.647Z,13.37
2017-06-09T00:13:29.049Z,13.3
2017-06-09T00:14:09.434Z,13.33
2017-06-09T00:14:49.855Z,13.36
2017-06-09T00:15:30.285Z,13.33
2017-06-09T00:16:10.716Z,13.33
2017-06-09T00:16:51.129Z,13.31
2017-06-09T00:17:31.582Z,13.3
2017-06-09T00:18:11.962Z,13.3
2017-06-09T00:18:52.421Z,13.3
2017-06-09T00:19:32.810Z,13.31
2017-06-09T00:20:13.224Z,13.2
2017-06-09T00:20:53.955Z,13.24
2017-06-09T00:21:34.359Z,13.26
2017-06-09T00:22:14.776Z,13.23
2017-06-09T00:22:55.617Z,13.2
2017-06-09T00:23:36.075Z,13.17
2017-06-09T00:24:16.688Z,13.23
2017-06-09T00:24:57.149Z,13.2
2017-06-09T00:25:37.509Z,13.16
2017-06-09T00:26:17.960Z,13.17
2017-06-09T00:26:58.404Z,13.12
2017-06-09T00:27:38.899Z,13.17
2017-06-09T00:28:19.309Z,13.12
2017-06-09T00:28:59.701Z,13.19
2017-06-09T00:29:40.103Z,13.11
2017-06-09T00:30:20.688Z,13.16
2017-06-09T00:31:01.145Z,13.17
2017-06-09T00:31:41.542Z,13.09
2017-06-09T00:32:21.943Z,13.19
2017-06-09T00:33:02.378Z,13.12
2017-06-09T00:33:42.800Z,13.13
2017-06-09T00:34:24.857Z,13.12
2017-06-09T00:35:05.555Z,13.17
2017-06-09T00:35:45.969Z,13.06
2017-06-09T00:36:26.422Z,13.12
2017-06-09T00:37:06.889Z,13.08
2017-06-09T00:37:47.270Z,13.08
2017-06-09T00:38:28.002Z,13.12
2017-06-09T00:39:08.381Z,13.05
2017-06-09T00:39:48.819Z,13.06
2017-06-09T00:40:29.199Z,13.06
2017-06-09T00:41:09.663Z,13.06
2017-06-09T00:41:50.048Z,13.03
2017-06-09T00:42:30.458Z,12.94
2017-06-09T00:43:10.858Z,12.93
2017-06-09T00:43:51.272Z,12.94
2017-06-09T00:44:31.902Z,12.91
2017-06-09T00:45:12.343Z,12.9
2017-06-09T00:45:52.692Z,12.84
2017-06-09T00:46:33.148Z,12.84
2017-06-09T00:47:14.494Z,12.83
2017-06-09T00:47:54.926Z,12.81
2017-06-09T00:48:35.327Z,12.87
2017-06-09T00:49:15.706Z,12.84
2017-06-09T00:49:56.199Z,12.83
2017-06-09T00:50:36.666Z,12.84
2017-06-09T00:51:17.095Z,12.88
2017-06-09T00:51:57.538Z,12.87
2017-06-09T00:52:37.974Z,12.93
2017-06-09T00:53:18.369Z,12.91
2017-06-09T00:53:58.807Z,12.93
2017-06-09T00:54:39.226Z,12.87
2017-06-09T00:55:19.666Z,12.9
2017-06-09T00:56:00.046Z,12.81
2017-06-09T00:56:40.453Z,12.84
2017-06-09T00:57:20.816Z,12.86
2017-06-09T00:58:01.237Z,12.8
2017-06-09T00:58:41.641Z,12.76
2017-06-09T00:59:22.019Z,12.72
2017-06-09T01:00:03.060Z,12.68
2017-06-09T01:00:44.573Z,12.7
2017-06-09T01:01:24.636Z,12.73
2017-06-09T01:02:05.063Z,12.75
2017-06-09T01:02:45.474Z,12.73
2017-06-09T01:03:25.901Z,12.72
2017-06-09T01:04:06.301Z,12.72
2017-06-09T01:04:46.683Z,12.66
2017-06-09T01:05:27.098Z,12.72
2017-06-09T01:06:07.467Z,12.75
2017-06-09T01:06:47.906Z,12.81
2017-06-09T01:07:28.317Z,12.76
2017-06-09T01:08:08.734Z,12.75
2017-06-09T01:08:49.130Z,12.78
2017-06-09T01:09:29.582Z,12.68
2017-06-09T01:10:10.155Z,12.7
2017-06-09T01:10:51.238Z,12.78
2017-06-09T01:11:31.604Z,12.68
2017-06-09T01:12:12.008Z,12.68
2017-06-09T01:12:52.427Z,12.73
2017-06-09T01:13:32.791Z,12.66
2017-06-09T01:14:13.695Z,12.65
2017-06-09T01:14:54.079Z,12.58
2017-06-09T01:15:34.517Z,12.69
2017-06-09T01:16:14.890Z,12.62
2017-06-09T01:16:55.321Z,12.68
2017-06-09T01:17:35.762Z,12.66
2017-06-09T01:18:16.167Z,12.63
2017-06-09T01:18:56.553Z,12.68
2017-06-09T01:20:34.224Z,12.57
2017-06-09T01:21:14.635Z,12.63
2017-06-09T01:21:55.050Z,12.66
2017-06-09T01:22:35.432Z,12.62
2017-06-09T01:23:15.864Z,12.65
2017-06-09T01:23:56.288Z,12.63
2017-06-09T01:24:37.150Z,12.65
2017-06-09T01:25:17.512Z,12.62
2017-06-09T01:25:57.925Z,12.68
2017-06-09T01:26:38.343Z,12.69
2017-06-09T01:27:19.767Z,12.7
2017-06-09T01:28:01.472Z,12.55
2017-06-09T01:28:41.856Z,12.63
2017-06-09T01:29:22.318Z,12.54
2017-06-09T01:30:02.703Z,12.63
2017-06-09T01:30:43.094Z,12.65
2017-06-09T01:31:23.520Z,12.68
2017-06-09T01:32:03.885Z,12.66
2017-06-09T01:32:44.305Z,12.61
2017-06-09T01:33:24.827Z,12.63
2017-06-09T01:34:05.232Z,12.61
2017-06-09T01:34:45.605Z,12.58
2017-06-09T01:35:26.016Z,12.62
2017-06-09T01:36:06.397Z,12.62
2017-06-09T01:36:46.777Z,12.57
2017-06-09T01:37:27.175Z,12.68
2017-06-09T01:38:07.582Z,12.55
2017-06-09T01:38:48.023Z,12.58
2017-06-09T01:39:28.421Z,12.55
2017-06-09T01:40:08.826Z,12.62
2017-06-09T01:40:50.625Z,12.63
2017-06-09T01:41:31.821Z,12.68
2017-06-09T01:42:12.983Z,12.63
2017-06-09T01:42:53.388Z,12.61
2017-06-09T01:43:33.809Z,12.61
2017-06-09T01:44:14.221Z,12.61
2017-06-09T01:44:55.127Z,12.63
2017-06-09T01:45:36.194Z,12.65
2017-06-09T01:46:16.669Z,12.61
2017-06-09T01:46:57.030Z,12.63
2017-06-09T01:47:37.416Z,12.65
2017-06-09T01:48:17.879Z,12.66
2017-06-09T01:48:58.298Z,12.68
2017-06-09T01:49:39.597Z,12.76
2017-06-09T01:50:20.051Z,12.75
2017-06-09T01:51:00.476Z,12.84
2017-06-09T01:51:40.872Z,12.84
2017-06-09T01:52:22.618Z,12.88
2017-06-09T01:53:02.238Z,12.91
2017-06-09T01:53:42.660Z,12.95
2017-06-09T01:54:23.255Z,13.12
2017-06-09T01:55:04.610Z,13.08
2017-06-09T01:55:45.013Z,13.21
2017-06-09T01:56:25.414Z,13.19
2017-06-09T01:57:05.848Z,13.26
2017-06-09T01:57:46.417Z,13.23
2017-06-09T01:59:24.045Z,13.31
2017-06-09T02:00:04.429Z,13.3
2017-06-09T02:00:44.874Z,13.31
2017-06-09T02:01:25.282Z,13.43
2017-06-09T02:02:05.727Z,13.45
2017-06-09T02:02:46.116Z,13.46
2017-06-09T02:03:26.556Z,13.47
2017-06-09T02:04:06.964Z,13.46
2017-06-09T02:04:47.372Z,13.5
2017-06-09T02:05:28.822Z,13.5
2017-06-09T02:06:09.241Z,13.49
2017-06-09T02:06:49.649Z,13.54
2017-06-09T02:09:03.431Z,13.55
2017-06-09T02:09:43.810Z,13.47
2017-06-09T02:10:24.199Z,13.46
2017-06-09T02:11:04.602Z,13.47
2017-06-09T02:11:45.015Z,13.5
2017-06-09T02:12:25.396Z,13.46
2017-06-09T02:13:05.998Z,13.47
2017-06-09T02:13:46.502Z,13.5
2017-06-09T02:14:26.937Z,13.52
2017-06-09T02:15:07.929Z,13.54
2017-06-09T02:15:48.294Z,13.55
2017-06-09T02:16:28.667Z,13.52
2017-06-09T02:17:09.174Z,13.5
2017-06-09T02:17:49.617Z,13.58
2017-06-09T02:18:30.045Z,13.55
2017-06-09T02:19:10.806Z,13.65
2017-06-09T02:19:51.453Z,13.62
2017-06-09T02:20:31.898Z,13.73
2017-06-09T02:21:13.114Z,13.73
2017-06-09T02:21:54.715Z,13.76
2017-06-09T02:22:35.069Z,13.83
2017-06-09T02:23:15.471Z,13.83
2017-06-09T02:23:55.842Z,13.83
2017-06-09T02:24:36.245Z,14.04
2017-06-09T02:25:16.987Z,14.08
2017-06-09T02:25:58.050Z,14.16
2017-06-09T02:26:38.458Z,14.18
2017-06-09T02:27:18.921Z,14.26
2017-06-09T02:27:59.323Z,14.28
2017-06-09T02:28:40.514Z,14.52
2017-06-09T02:29:21.050Z,14.55
2017-06-09T02:30:01.462Z,14.68
2017-06-09T02:30:41.864Z,14.74
2017-06-09T02:31:22.251Z,14.9
2017-06-09T02:32:02.791Z,14.82
2017-06-09T02:32:43.109Z,14.86
2017-06-09T02:33:23.523Z,15.02
2017-06-09T02:34:04.213Z,15.08
2017-06-09T02:34:44.608Z,15.27
2017-06-09T02:35:25.053Z,15.3
2017-06-09T02:36:05.482Z,15.41
2017-06-09T02:36:45.939Z,15.5
2017-06-09T02:37:26.333Z,15.6
2017-06-09T02:38:06.711Z,15.66
2017-06-09T02:38:47.097Z,15.75
2017-06-09T02:39:27.510Z,15.84
2017-06-09T02:40:07.920Z,15.87
2017-06-09T02:40:48.381Z,15.88
2017-06-09T02:41:28.799Z,16
2017-06-09T02:42:09.222Z,16.1
2017-06-09T02:42:49.652Z,16.21
2017-06-09T02:43:30.030Z,16.28
2017-06-09T02:44:10.425Z,16.37
2017-06-09T02:44:50.849Z,16.41
2017-06-09T02:45:31.285Z,16.51
2017-06-09T02:46:11.809Z,16.47
2017-06-09T02:46:52.243Z,16.57
2017-06-09T02:47:32.627Z,16.62
2017-06-09T02:48:13.039Z,16.66
2017-06-09T02:48:53.599Z,16.66
2017-06-09T02:49:34.026Z,16.74
2017-06-09T02:50:14.465Z,16.8
2017-06-09T02:50:54.838Z,16.79
2017-06-09T02:51:35.250Z,16.8
2017-06-09T02:52:15.719Z,16.86
2017-06-09T02:52:56.095Z,16.94
2017-06-09T02:53:36.546Z,16.92
2017-06-09T02:54:16.947Z,16.92
2017-06-09T02:54:57.368Z,16.89
2017-06-09T02:55:37.750Z,17.01
2017-06-09T02:56:18.309Z,17.02
2017-06-09T02:56:58.568Z,16.92
2017-06-09T02:57:39.848Z,16.99
2017-06-09T02:58:20.296Z,16.98
2017-06-09T02:59:00.749Z,16.92
2017-06-09T02:59:41.187Z,16.99
2017-06-09T03:00:21.545Z,16.98
2017-06-09T03:01:01.984Z,16.95
2017-06-09T03:01:42.381Z,16.92
2017-06-09T03:02:22.753Z,16.87
2017-06-09T03:03:03.139Z,16.83
2017-06-09T03:03:43.659Z,16.8
2017-06-09T03:04:24.663Z,16.82
2017-06-09T03:05:05.043Z,16.73
2017-06-09T03:05:45.529Z,16.74
2017-06-09T03:06:25.952Z,16.74
2017-06-09T03:07:06.343Z,16.76
2017-06-09T03:07:46.803Z,16.82
2017-06-09T03:08:27.197Z,16.82
2017-06-09T03:09:07.655Z,16.76
2017-06-09T03:09:48.039Z,16.77
2017-06-09T03:11:40.758Z,16.76
2017-06-09T03:12:21.219Z,16.73
2017-06-09T03:13:01.639Z,16.66
2017-06-09T03:13:42.068Z,16.73
2017-06-09T03:14:22.470Z,16.76
2017-06-09T03:15:02.890Z,16.79
2017-06-09T03:15:43.651Z,16.74
2017-06-09T03:16:24.597Z,16.73
2017-06-09T03:17:05.040Z,16.72
2017-06-09T03:17:45.516Z,16.74
2017-06-09T03:18:25.872Z,16.69
2017-06-09T03:19:06.292Z,16.68
2017-06-09T03:19:46.881Z,16.66
2017-06-09T03:20:27.367Z,16.73
2017-06-09T03:21:07.767Z,16.69
2017-06-09T03:21:48.309Z,16.72
2017-06-09T03:22:28.877Z,16.72
2017-06-09T03:23:09.160Z,16.62
2017-06-09T03:23:49.569Z,16.58
2017-06-09T03:24:29.996Z,16.64
2017-06-09T03:25:10.403Z,16.62
2017-06-09T03:25:51.532Z,16.59
2017-06-09T03:26:31.973Z,16.59
2017-06-09T03:27:12.374Z,16.59
2017-06-09T03:27:52.783Z,16.54
2017-06-09T03:28:33.198Z,16.65
2017-06-09T03:29:13.649Z,16.57
2017-06-09T03:29:54.096Z,16.62
2017-06-09T03:30:34.494Z,16.54
2017-06-09T03:31:14.892Z,16.58
2017-06-09T03:31:55.258Z,16.58
2017-06-09T03:32:35.745Z,16.49
2017-06-09T03:33:16.182Z,16.5
2017-06-09T03:33:56.559Z,16.5
2017-06-09T03:34:36.950Z,16.47
2017-06-09T03:35:17.348Z,16.41
2017-06-09T03:35:57.755Z,16.5
2017-06-09T03:36:38.183Z,16.43
2017-06-09T03:37:18.550Z,16.44
2017-06-09T03:37:58.971Z,16.34
2017-06-09T03:38:39.403Z,16.36
2017-06-09T03:39:19.780Z,16.34
2017-06-09T03:40:00.183Z,16.32
2017-06-09T03:40:40.599Z,16.37
2017-06-09T03:41:21.074Z,16.34
2017-06-09T03:42:01.422Z,16.29
2017-06-09T03:42:41.871Z,16.29
2017-06-09T03:43:22.303Z,16.24
2017-06-09T03:44:02.708Z,16.22
2017-06-09T03:44:43.108Z,16.22
2017-06-09T03:45:23.505Z,16.17
2017-06-09T03:46:03.901Z,16.1
2017-06-09T03:46:44.359Z,16.12
2017-06-09T03:47:24.759Z,16.09
2017-06-09T03:48:05.172Z,16.12
2017-06-09T03:48:45.697Z,16.22
2017-06-09T03:49:26.080Z,16.22
2017-06-09T03:50:06.483Z,16.21
2017-06-09T03:50:46.866Z,16.24
2017-06-09T03:52:59.875Z,16.36
2017-06-09T03:53:41.081Z,16.4
2017-06-09T03:54:22.228Z,16.43
2017-06-09T03:55:02.834Z,16.54
2017-06-09T03:55:43.308Z,16.54
2017-06-09T03:56:23.826Z,16.47
2017-06-09T03:57:04.291Z,16.54
2017-06-09T03:57:44.655Z,16.5
2017-06-09T03:58:25.084Z,16.51
2017-06-09T03:59:05.488Z,16.51
2017-06-09T03:59:45.974Z,16.58
2017-06-09T04:00:26.327Z,16.54
2017-06-09T04:01:06.759Z,16.57
2017-06-09T04:01:47.322Z,16.55
2017-06-09T04:02:27.814Z,16.59
2017-06-09T04:03:08.168Z,16.51
2017-06-09T04:03:48.616Z,16.57
2017-06-09T04:04:29.063Z,16.59
2017-06-09T04:05:09.658Z,16.51
2017-06-09T04:05:50.241Z,16.5
2017-06-09T04:06:30.682Z,16.49
2017-06-09T04:07:11.092Z,16.5
2017-06-09T04:07:51.529Z,16.46
2017-06-09T04:08:31.931Z,16.43
2017-06-09T04:09:12.389Z,16.43
2017-06-09T04:09:52.865Z,16.51
2017-06-09T04:10:33.642Z,16.54
2017-06-09T04:11:14.396Z,16.46
2017-06-09T04:11:55.412Z,16.49
2017-06-09T04:12:35.857Z,16.54
2017-06-09T04:13:16.326Z,16.47
2017-06-09T04:13:56.802Z,16.44
2017-06-09T04:14:37.326Z,16.44
2017-06-09T04:15:17.717Z,16.4
2017-06-09T04:15:58.134Z,16.41
2017-06-09T04:16:38.648Z,16.43
2017-06-09T04:17:19.111Z,16.37
2017-06-09T04:17:59.587Z,16.34
2017-06-09T04:18:40.714Z,16.31
2017-06-09T04:19:21.159Z,16.21
2017-06-09T04:20:01.551Z,16.24
2017-06-09T04:20:42.028Z,16.22
2017-06-09T04:21:22.449Z,16.21
2017-06-09T04:22:02.839Z,16.22
2017-06-09T04:22:43.248Z,16.16
2017-06-09T04:23:23.755Z,16.21
2017-06-09T04:24:04.138Z,16.21
2017-06-09T04:24:44.577Z,16.17
2017-06-09T04:25:25.029Z,16.21
2017-06-09T04:26:05.430Z,16.25
2017-06-09T04:26:45.833Z,16.36
2017-06-09T04:27:26.322Z,16.28
2017-06-09T04:28:06.711Z,16.43
2017-06-09T04:28:47.145Z,16.51
2017-06-09T04:31:00.452Z,16.58
2017-06-09T04:31:41.106Z,16.68
2017-06-09T04:32:21.551Z,16.68
2017-06-09T04:33:01.995Z,16.74
2017-06-09T04:33:42.396Z,16.8
2017-06-09T04:34:22.801Z,16.83
2017-06-09T04:35:03.245Z,16.83
2017-06-09T04:35:43.639Z,16.92
2017-06-09T04:36:24.037Z,16.98
2017-06-09T04:37:04.440Z,16.97
2017-06-09T04:37:45.127Z,17.02
2017-06-09T04:38:25.541Z,17.04
2017-06-09T04:39:05.954Z,16.97
2017-06-09T04:39:46.369Z,17.1
2017-06-09T04:40:26.816Z,17.13
2017-06-09T04:41:07.247Z,17.1
2017-06-09T04:41:47.625Z,17.17
2017-06-09T04:42:28.031Z,17.2
2017-06-09T04:43:08.496Z,17.22
2017-06-09T04:43:48.820Z,17.2
2017-06-09T04:44:29.252Z,17.34
2017-06-09T04:45:09.666Z,17.34
2017-06-09T04:45:50.138Z,17.28
2017-06-09T04:46:30.578Z,17.42
2017-06-09T04:47:10.975Z,17.44
2017-06-09T04:47:51.369Z,17.49
2017-06-09T04:48:31.779Z,17.54
2017-06-09T04:49:12.163Z,17.54
2017-06-09T04:49:52.588Z,17.54
2017-06-09T04:50:32.993Z,17.54
2017-06-09T04:51:13.396Z,17.63
2017-06-09T04:51:53.781Z,17.63
2017-06-09T04:52:34.402Z,17.59
2017-06-09T04:53:14.821Z,17.69
2017-06-09T04:53:55.240Z,17.71
2017-06-09T04:54:35.626Z,17.63
2017-06-09T04:55:16.034Z,17.65
2017-06-09T04:55:56.440Z,17.71
2017-06-09T04:56:36.824Z,17.68
2017-06-09T04:57:17.281Z,17.66
2017-06-09T04:57:57.669Z,17.65
2017-06-09T04:58:38.070Z,17.72
2017-06-09T04:59:18.556Z,17.69
2017-06-09T04:59:59.108Z,17.65
2017-06-09T05:00:39.609Z,17.66
2017-06-09T05:01:19.979Z,17.68
2017-06-09T05:02:00.442Z,17.75
2017-06-09T05:02:40.838Z,17.73
2017-06-09T05:03:21.230Z,17.68
2017-06-09T05:04:01.599Z,17.76
2017-06-09T05:04:42.033Z,17.72
2017-06-09T05:05:22.436Z,17.84
2017-06-09T05:06:02.880Z,17.79
2017-06-09T05:06:43.272Z,17.87
2017-06-09T05:07:23.738Z,17.84
2017-06-09T05:08:04.116Z,17.9
2017-06-09T05:08:44.563Z,17.86
2017-06-09T05:09:24.978Z,17.87
2017-06-09T05:10:05.352Z,17.91
2017-06-09T05:10:45.800Z,17.93
2017-06-09T05:11:26.213Z,18.11
2017-06-09T05:12:06.645Z,18.08
2017-06-09T05:12:47.063Z,18.23
2017-06-09T05:13:27.523Z,18.28
2017-06-09T05:14:07.937Z,18.24
2017-06-09T05:14:48.381Z,18.27
2017-06-09T05:15:28.835Z,18.31
2017-06-09T05:16:09.213Z,18.39
2017-06-09T05:16:49.647Z,18.41
2017-06-09T05:17:30.153Z,18.49
2017-06-09T05:18:10.558Z,18.52
2017-06-09T05:18:50.968Z,18.6
2017-06-09T05:19:31.427Z,18.64
2017-06-09T05:20:11.823Z,18.68
2017-06-09T05:20:52.213Z,18.73
2017-06-09T05:21:32.614Z,18.71
2017-06-09T05:22:12.962Z,18.79
2017-06-09T05:22:53.370Z,18.78
2017-06-09T05:23:33.782Z,18.85
2017-06-09T05:24:14.257Z,18.98
2017-06-09T05:24:54.651Z,18.97
2017-06-09T05:25:35.109Z,19.04
2017-06-09T05:26:15.561Z,19.15
2017-06-09T05:26:55.894Z,19.23
2017-06-09T05:27:36.300Z,19.23
2017-06-09T05:28:16.809Z,19.23
2017-06-09T05:28:57.366Z,19.3
2017-06-09T05:29:37.830Z,19.45
2017-06-09T05:30:18.200Z,19.47
2017-06-09T05:30:58.625Z,19.55
2017-06-09T05:31:39.058Z,19.62
2017-06-09T05:32:19.471Z,19.63
2017-06-09T05:32:59.987Z,19.67
2017-06-09T05:33:40.340Z,19.64
2017-06-09T05:34:20.882Z,19.77
2017-06-09T05:35:01.285Z,19.78
2017-06-09T05:35:41.610Z,19.78
2017-06-09T05:36:21.983Z,19.77
2017-06-09T05:37:02.415Z,19.85
2017-06-09T05:37:43.011Z,19.85
2017-06-09T05:38:23.236Z,19.85
2017-06-09T05:39:04.108Z,19.89
2017-06-09T05:39:44.670Z,19.96
2017-06-09T05:40:25.291Z,20.02
2017-06-09T05:41:05.736Z,19.97
2017-06-09T05:41:47.288Z,20.03
2017-06-09T05:42:27.794Z,20.11
2017-06-09T05:43:08.206Z,20.11
2017-06-09T05:43:48.589Z,20.21
2017-06-09T05:44:29.301Z,20.18
2017-06-09T05:45:10.376Z,20.27
2017-06-09T05:45:51.325Z,20.32
2017-06-09T05:46:32.734Z,20.27
2017-06-09T05:47:13.152Z,20.49
2017-06-09T05:47:54.112Z,20.55
2017-06-09T05:48:34.549Z,20.5
2017-06-09T05:49:14.987Z,20.64
2017-06-09T05:49:55.406Z,20.68
2017-06-09T05:50:36.138Z,20.73
2017-06-09T05:51:16.909Z,20.7
2017-06-09T05:51:57.165Z,20.75
2017-06-09T05:52:37.605Z,20.77
2017-06-09T05:53:18.175Z,20.85
2017-06-09T05:53:58.606Z,20.86
2017-06-09T05:54:39.038Z,20.98
2017-06-09T05:55:19.423Z,20.98
2017-06-09T05:56:00.174Z,21.04
2017-06-09T05:56:40.526Z,21.13
2017-06-09T05:57:20.937Z,21.26
2017-06-09T05:58:01.582Z,21.22
2017-06-09T05:58:42.037Z,21.23
2017-06-09T05:59:22.478Z,21.29
2017-06-09T06:01:21.351Z,21.4
2017-06-09T06:02:01.528Z,21.48
2017-06-09T06:02:41.863Z,21.38
2017-06-09T06:03:22.362Z,21.43
2017-06-09T06:04:02.789Z,21.47
2017-06-09T06:04:43.165Z,21.5
2017-06-09T06:05:23.642Z,21.53
2017-06-09T06:06:04.026Z,21.54
2017-06-09T06:06:44.430Z,21.59
2017-06-09T06:07:24.904Z,21.63
2017-06-09T06:08:05.423Z,21.66
2017-06-09T06:08:45.798Z,21.75
2017-06-09T06:09:26.262Z,21.78
2017-06-09T06:10:06.645Z,21.81
2017-06-09T06:10:47.103Z,21.83
2017-06-09T06:11:27.494Z,21.88
2017-06-09T06:12:07.910Z,21.94
2017-06-09T06:12:48.310Z,21.99
2017-06-09T06:13:28.723Z,22.08
2017-06-09T06:14:09.086Z,22.07
2017-06-09T06:14:49.516Z,22.18
2017-06-09T06:15:29.907Z,22.19
2017-06-09T06:16:10.326Z,22.22
2017-06-09T06:16:50.734Z,22.26
2017-06-09T06:17:31.111Z,22.28
2017-06-09T06:18:11.548Z,22.26
2017-06-09T06:18:52.019Z,22.34
2017-06-09T06:19:32.378Z,22.41
2017-06-09T06:20:12.792Z,22.49
2017-06-09T06:20:53.188Z,22.53
2017-06-09T06:21:33.616Z,22.68
2017-06-09T06:22:14.026Z,22.59
2017-06-09T06:22:54.444Z,22.71
2017-06-09T06:23:34.838Z,22.88
2017-06-09T06:24:15.249Z,22.91
2017-06-09T06:24:55.704Z,22.93
2017-06-09T06:25:36.098Z,22.96
2017-06-09T06:26:16.554Z,23.11
2017-06-09T06:26:56.937Z,23.13
2017-06-09T06:27:37.362Z,23.13
2017-06-09T06:28:17.794Z,23.26
2017-06-09T06:28:58.227Z,23.28
2017-06-09T06:29:38.808Z,23.28
2017-06-09T06:30:19.326Z,23.42
2017-06-09T06:30:59.686Z,23.39
2017-06-09T06:31:40.118Z,23.32
2017-06-09T06:32:20.504Z,23.36
2017-06-09T06:33:00.919Z,23.32
2017-06-09T06:33:41.339Z,23.34
2017-06-09T06:34:21.751Z,23.36
2017-06-09T06:35:02.282Z,23.45
2017-06-09T06:35:42.676Z,23.45
2017-06-09T06:36:23.094Z,23.51
2017-06-09T06:37:03.475Z,23.63
2017-06-09T06:37:43.903Z,23.74
2017-06-09T06:38:24.412Z,23.69
2017-06-09T06:39:04.784Z,23.71
2017-06-09T06:39:45.204Z,23.89
2017-06-09T06:40:25.654Z,23.92
2017-06-09T06:41:06.033Z,24.06
2017-06-09T06:41:46.468Z,24.1
2017-06-09T06:42:26.915Z,24.16
2017-06-09T06:43:07.354Z,24.24
2017-06-09T06:43:47.716Z,24.37
2017-06-09T06:44:28.289Z,24.43
2017-06-09T06:45:08.654Z,24.53
2017-06-09T06:45:49.067Z,24.66
2017-06-09T06:46:29.590Z,24.82
2017-06-09T06:47:09.950Z,24.84
2017-06-09T06:47:50.408Z,25.01
2017-06-09T06:48:30.768Z,25.04
2017-06-09T06:49:11.190Z,25.16
2017-06-09T06:49:51.630Z,25.24
2017-06-09T06:50:32.024Z,25.24
2017-06-09T06:51:12.480Z,25.18
2017-06-09T06:51:52.967Z,25.34
2017-06-09T06:52:33.337Z,25.22
2017-06-09T06:53:13.774Z,25.14
2017-06-09T06:53:54.137Z,25.15
2017-06-09T06:54:34.609Z,25.12
2017-06-09T06:55:15.049Z,25.19
2017-06-09T06:55:55.473Z,25.16
2017-06-09T06:56:35.861Z,25.19
2017-06-09T06:57:16.263Z,25.21
2017-06-09T06:57:56.651Z,25.18
2017-06-09T06:58:37.099Z,25.07
2017-06-09T06:59:17.493Z,24.96
2017-06-09T06:59:57.941Z,25.01
2017-06-09T07:00:38.364Z,24.96
2017-06-09T07:01:18.829Z,24.92
2017-06-09T07:01:59.279Z,24.96
2017-06-09T07:02:39.698Z,24.89
2017-06-09T07:03:20.077Z,25.01
2017-06-09T07:04:00.501Z,25.04
2017-06-09T07:04:40.994Z,25.18
2017-06-09T07:05:21.388Z,25.34
2017-06-09T07:06:01.780Z,25.49
2017-06-09T07:06:42.238Z,25.55
2017-06-09T07:07:22.613Z,25.76
2017-06-09T07:08:03.123Z,25.83
2017-06-09T07:08:43.581Z,25.88
2017-06-09T07:09:23.924Z,26.01
2017-06-09T07:10:04.366Z,26.06
2017-06-09T07:10:44.781Z,26.01
2017-06-09T07:11:25.351Z,26.11
2017-06-09T07:12:05.617Z,26.15
2017-06-09T07:12:46.023Z,26.18
2017-06-09T07:13:26.454Z,26.22
2017-06-09T07:14:06.886Z,26.33
2017-06-09T07:14:47.301Z,26.52
2017-06-09T07:15:27.742Z,26.76
2017-06-09T07:16:08.135Z,26.98
2017-06-09T07:16:48.514Z,27.19
2017-06-09T07:17:28.972Z,27.35
2017-06-09T07:18:09.391Z,27.45
2017-06-09T07:18:49.762Z,27.5
2017-06-09T07:19:30.328Z,27.64
2017-06-09T07:20:10.647Z,27.64
2017-06-09T07:20:51.045Z,27.72
2017-06-09T07:21:31.488Z,27.71
2017-06-09T07:22:11.862Z,27.53
2017-06-09T07:22:52.326Z,27.53
2017-06-09T07:23:32.694Z,27.44
2017-06-09T07:24:13.110Z,27.34
2017-06-09T07:24:53.531Z,27.37
2017-06-09T07:25:34.156Z,27.2
2017-06-09T07:26:14.617Z,27.18
2017-06-09T07:26:55.030Z,27.26
2017-06-09T07:27:35.420Z,27.16
2017-06-09T07:28:15.842Z,27.22
2017-06-09T07:28:56.311Z,27.28
2017-06-09T07:29:36.777Z,27.33
2017-06-09T07:30:17.135Z,27.33
2017-06-09T07:30:57.504Z,27.35
2017-06-09T07:31:38.023Z,27.35
2017-06-09T07:32:18.437Z,27.18
2017-06-09T07:32:58.794Z,27.18
2017-06-09T07:33:39.213Z,27.19
2017-06-09T07:34:19.625Z,27.01
2017-06-09T07:35:00.008Z,26.93
2017-06-09T07:35:40.424Z,26.81
2017-06-09T07:36:20.879Z,26.68
2017-06-09T07:37:01.341Z,26.6
2017-06-09T07:37:41.796Z,26.46
2017-06-09T07:38:22.222Z,26.31
2017-06-09T07:39:02.715Z,26.31
2017-06-09T07:39:43.091Z,26.23
2017-06-09T07:40:23.513Z,26.1
2017-06-09T07:41:03.908Z,25.96
2017-06-09T07:41:44.314Z,25.99
2017-06-09T07:42:24.773Z,25.99
2017-06-09T07:43:05.166Z,25.88
2017-06-09T07:43:45.583Z,25.74
2017-06-09T07:44:26.109Z,25.74
2017-06-09T07:45:06.483Z,25.61
2017-06-09T07:45:46.952Z,25.59
2017-06-09T07:46:27.369Z,25.58
2017-06-09T07:47:07.822Z,25.59
2017-06-09T07:47:48.235Z,25.56
2017-06-09T07:48:28.621Z,25.54
2017-06-09T07:49:09.079Z,25.51
2017-06-09T07:49:49.496Z,25.59
2017-06-09T07:50:29.909Z,25.58
2017-06-09T07:51:10.294Z,25.63
2017-06-09T07:51:50.716Z,25.66
2017-06-09T07:52:31.091Z,25.67
2017-06-09T07:53:11.549Z,25.63
2017-06-09T07:53:51.963Z,25.59
2017-06-09T07:54:32.444Z,25.58
2017-06-09T07:55:12.864Z,25.55
2017-06-09T07:55:53.231Z,25.61
2017-06-09T07:56:33.655Z,25.55
2017-06-09T07:57:14.094Z,25.55
2017-06-09T07:57:54.502Z,25.52
2017-06-09T07:58:34.880Z,25.52
2017-06-09T07:59:15.307Z,25.43
2017-06-09T07:59:55.722Z,25.54
2017-06-09T08:00:36.128Z,25.4
2017-06-09T08:01:16.580Z,25.36
2017-06-09T08:01:56.964Z,25.36
2017-06-09T08:02:37.374Z,25.33
2017-06-09T08:03:17.803Z,25.34
2017-06-09T08:03:58.213Z,25.25
2017-06-09T08:04:38.648Z,25.19
2017-06-09T08:05:19.060Z,25.26
2017-06-09T08:05:59.463Z,25.19
2017-06-09T08:06:39.871Z,25.29
2017-06-09T08:07:20.298Z,25.22
2017-06-09T08:08:00.764Z,25.19
2017-06-09T08:08:41.170Z,25.21
2017-06-09T08:09:21.573Z,25.16
2017-06-09T08:10:01.981Z,25.34
2017-06-09T08:10:42.369Z,25.18
2017-06-09T08:11:22.752Z,25.29
2017-06-09T08:12:03.223Z,25.15
2017-06-09T08:12:43.659Z,25.25
2017-06-09T08:13:24.017Z,25.26
2017-06-09T08:14:04.449Z,25.4
2017-06-09T08:14:44.860Z,25.61
2017-06-09T08:15:25.249Z,25.73
2017-06-09T08:16:05.618Z,25.98
2017-06-09T08:16:46.038Z,26.08
2017-06-09T08:17:26.470Z,26.45
2017-06-09T08:18:06.934Z,26.68
2017-06-09T08:18:47.296Z,26.76
2017-06-09T08:19:27.751Z,26.88
2017-06-09T08:20:08.202Z,26.81
2017-06-09T08:20:48.587Z,26.85
2017-06-09T08:21:29.093Z,26.74
2017-06-09T08:22:09.487Z,26.78
2017-06-09T08:22:49.892Z,26.67
2017-06-09T08:23:30.275Z,26.64
2017-06-09T08:24:10.714Z,26.59
2017-06-09T08:24:51.135Z,26.56
2017-06-09T08:25:31.522Z,26.56
2017-06-09T08:26:11.970Z,26.6
2017-06-09T08:26:52.364Z,26.59
2017-06-09T08:27:32.822Z,26.64
2017-06-09T08:28:13.160Z,26.64
2017-06-09T08:28:53.589Z,26.63
2017-06-09T08:29:34.011Z,26.64
2017-06-09T08:31:47.107Z,26.24
2017-06-09T08:32:27.495Z,26.11
2017-06-09T08:33:07.957Z,26.1
2017-06-09T08:33:48.356Z,25.93
2017-06-09T08:34:28.765Z,25.81
2017-06-09T08:35:09.180Z,25.76
2017-06-09T08:35:49.598Z,25.62
2017-06-09T08:36:29.956Z,25.67
2017-06-09T08:37:10.458Z,25.73
2017-06-09T08:37:50.842Z,25.8
2017-06-09T08:38:31.219Z,25.96
2017-06-09T08:39:11.628Z,26.06
2017-06-09T08:39:52.056Z,26.3
2017-06-09T08:40:32.419Z,26.33
2017-06-09T08:41:12.949Z,26.51
2017-06-09T08:41:53.250Z,26.76
2017-06-09T08:42:33.693Z,27.04
2017-06-09T08:43:14.087Z,27.4
2017-06-09T08:43:54.504Z,27.82
2017-06-09T08:44:34.891Z,28.15
2017-06-09T08:45:15.319Z,28.46
2017-06-09T08:45:55.742Z,28.67
2017-06-09T08:46:36.137Z,28.7
2017-06-09T08:47:16.609Z,28.57
2017-06-09T08:47:56.963Z,28.47
2017-06-09T08:48:37.404Z,28.46
2017-06-09T08:49:17.820Z,28.38
2017-06-09T08:49:58.214Z,28.25
2017-06-09T08:50:38.654Z,28.04
2017-06-09T08:51:19.067Z,28.03
2017-06-09T08:51:59.460Z,28.06
2017-06-09T08:52:39.886Z,27.93
2017-06-09T08:53:20.310Z,27.88